createdAt,value
2022-10-22T00:03:42.178Z,96886.00
2022-10-22T00:08:35.685Z,96861.31
2022-10-22T00:13:28.965Z,96862.69
2022-10-22T00:18:22.211Z,96845.94
2022-10-22T00:23:16.788Z,96841.63
2022-10-22T00:28:11.574Z,96825.44
2022-10-22T00:33:05.269Z,96803.13
2022-10-22T00:37:58.676Z,96811.28
2022-10-22T00:42:53.312Z,96834.88
2022-10-22T00:47:55.530Z,96828.22
2022-10-22T00:52:49.169Z,96865.31
2022-10-22T00:57:43.217Z,96878.94
2022-10-22T01:02:38.567Z,96894.03
2022-10-22T01:07:32.446Z,96881.28
2022-10-22T01:12:39.980Z,96879.91
2022-10-22T01:17:49.195Z,96892.09
2022-10-22T01:22:52.606Z,96892.63
2022-10-22T01:28:13.001Z,96891.56
2022-10-22T01:33:13.696Z,96874.06
2022-10-22T01:38:12.385Z,96870.59
2022-10-22T01:43:11.010Z,96869.50
2022-10-22T01:48:23.891Z,96862.84
2022-10-22T01:53:33.912Z,96826.78
2022-10-22T01:58:43.672Z,96838.44
2022-10-22T02:03:45.693Z,96850.63
2022-10-22T02:08:40.182Z,96833.72
2022-10-22T02:13:42.439Z,96863.38
2022-10-22T02:18:43.677Z,96857.56
2022-10-22T02:23:37.643Z,96869.03
2022-10-22T02:28:40.419Z,96874.66
2022-10-22T02:33:42.692Z,96877.06
2022-10-22T02:38:37.451Z,96881.09
2022-10-22T02:44:05.941Z,96874.66
2022-10-22T02:49:00.691Z,96869.97
2022-10-22T02:53:54.074Z,96875.53
2022-10-22T02:58:47.340Z,96877.72
2022-10-22T03:03:40.813Z,96875.53
2022-10-22T03:08:35.819Z,96860.84
2022-10-22T03:13:29.888Z,96883.81
2022-10-22T03:18:23.200Z,96889.38
2022-10-22T03:23:21.078Z,96883.88
2022-10-22T03:28:19.691Z,96894.41
2022-10-22T03:33:13.082Z,96897.75
2022-10-22T03:38:06.489Z,96895.13
2022-10-22T03:43:00.456Z,96890.53
2022-10-22T03:47:55.152Z,96885.84
2022-10-22T03:52:48.458Z,96888.00
2022-10-22T03:57:41.979Z,96889.81
2022-10-22T04:02:35.456Z,96901.03
2022-10-22T04:07:30.056Z,96900.66
2022-10-22T04:12:23.441Z,96907.97
2022-10-22T04:17:17.265Z,96909.63
2022-10-22T04:22:10.641Z,96901.00
2022-10-22T04:27:05.443Z,96899.25
2022-10-22T04:31:58.825Z,96898.81
2022-10-22T04:36:52.110Z,96896.53
2022-10-22T04:41:45.416Z,96902.88
2022-10-22T04:46:40.080Z,96904.50
2022-10-22T04:51:34.147Z,96902.63
2022-10-22T04:56:30.969Z,96897.50
2022-10-22T05:01:26.509Z,96905.34
2022-10-22T05:06:22.919Z,96902.03
2022-10-22T05:11:20.133Z,96898.03
2022-10-22T05:16:14.944Z,96888.94
2022-10-22T05:21:12.159Z,96911.47
2022-10-22T05:26:08.702Z,96910.91
2022-10-22T05:31:03.536Z,96908.41
2022-10-22T05:35:58.006Z,96907.00
2022-10-22T05:41:01.752Z,96910.91
2022-10-22T05:45:56.438Z,96910.22
2022-10-22T05:50:50.817Z,96920.22
2022-10-22T05:55:44.162Z,96922.78
2022-10-22T06:00:37.555Z,96935.44
2022-10-22T06:06:03.613Z,96946.72
2022-10-22T06:11:06.946Z,96933.03
2022-10-22T06:16:00.601Z,96945.56
2022-10-22T06:20:58.191Z,96948.19
2022-10-22T06:26:04.749Z,96953.59
2022-10-22T06:30:59.886Z,96967.09
2022-10-22T06:35:58.185Z,96972.94
2022-10-22T06:40:51.564Z,96975.13
2022-10-22T06:45:44.872Z,96986.84
2022-10-22T06:50:38.470Z,96993.66
2022-10-22T06:55:33.145Z,96995.44
2022-10-22T07:00:26.657Z,96992.91
2022-10-22T07:05:20.634Z,97001.81
2022-10-22T07:10:13.956Z,97016.97
2022-10-22T07:20:27.039Z,97032.97
2022-10-22T07:25:20.742Z,97031.84
2022-10-22T07:30:16.104Z,97045.59
2022-10-22T07:35:10.382Z,97050.03
2022-10-22T07:40:04.445Z,97048.66
2022-10-22T07:44:57.921Z,97051.16
2022-10-22T07:49:52.656Z,97068.56
2022-10-22T07:54:46.016Z,97066.13
2022-10-22T07:59:39.351Z,97066.44
2022-10-22T08:04:32.605Z,97069.28
2022-10-22T08:09:27.511Z,97070.94
2022-10-22T08:14:21.180Z,97076.88
2022-10-22T08:19:18.754Z,97082.59
2022-10-22T08:24:12.096Z,97082.53
2022-10-22T08:29:07.005Z,97081.03
2022-10-22T08:34:00.298Z,97081.34
2022-10-22T08:38:56.686Z,97073.31
2022-10-22T08:44:31.506Z,97071.66
2022-10-22T08:49:37.139Z,97073.47
2022-10-22T08:54:48.662Z,97072.78
2022-10-22T08:59:51.720Z,97081.13
2022-10-22T09:04:56.216Z,97087.44
2022-10-22T09:09:55.145Z,97097.88
2022-10-22T09:14:50.215Z,97102.88
2022-10-22T09:20:04.991Z,97109.00
2022-10-22T09:25:12.022Z,97127.47
2022-10-22T09:30:12.785Z,97127.19
2022-10-22T09:35:12.424Z,97134.25
2022-10-22T09:40:15.876Z,97144.31
2022-10-22T09:45:22.025Z,97155.13
2022-10-22T09:50:30.196Z,97173.63
2022-10-22T09:55:27.297Z,97164.59
2022-10-22T10:00:25.037Z,97166.97
2022-10-22T10:05:26.591Z,97171.28
2022-10-22T10:10:35.733Z,97180.88
2022-10-22T10:15:40.005Z,97172.66
2022-10-22T10:20:47.046Z,97168.50
2022-10-22T10:25:58.654Z,97161.81
2022-10-22T10:31:12.854Z,97145.66
2022-10-22T10:36:17.163Z,97165.41
2022-10-22T10:41:26.785Z,97169.88
2022-10-22T10:46:36.944Z,97158.47
2022-10-22T10:51:47.361Z,97181.56
2022-10-22T11:02:41.154Z,97165.13
2022-10-22T11:07:45.895Z,97153.88
2022-10-22T11:17:55.907Z,97124.53
2022-10-22T11:23:17.520Z,97121.47
2022-10-22T11:33:18.465Z,97123.28
2022-10-22T11:38:18.712Z,97130.50
2022-10-22T11:43:28.997Z,97141.22
2022-10-22T12:20:17.598Z,97120.25
2022-10-22T12:25:21.744Z,97121.91
2022-10-22T12:30:26.209Z,97115.72
2022-10-22T12:35:25.844Z,97113.03
2022-10-22T12:40:22.604Z,97132.38
2022-10-22T12:45:16.081Z,97125.38
2022-10-22T12:50:18.916Z,97147.44
2022-10-22T12:55:19.040Z,97155.59
2022-10-22T13:00:25.939Z,97147.53
2022-10-22T13:05:27.349Z,97149.22
2022-10-22T13:10:28.544Z,97148.13
2022-10-22T13:15:35.559Z,97141.16
2022-10-22T13:20:28.871Z,97152.63
2022-10-22T13:25:29.206Z,97152.66
2022-10-22T13:30:25.881Z,97144.88
2022-10-22T13:35:25.466Z,97139.59
2022-10-22T13:40:19.051Z,97144.66
2022-10-22T13:45:14.552Z,97134.44
2022-10-22T13:50:16.496Z,97138.38
2022-10-22T13:55:20.945Z,97141.59
2022-10-22T14:00:21.405Z,97143.88
2022-10-22T14:05:15.994Z,97141.22
2022-10-22T14:10:17.612Z,97128.28
2022-10-22T14:15:14.125Z,97122.88
2022-10-22T14:20:15.521Z,97108.34
2022-10-22T14:25:12.763Z,97120.72
2022-10-22T14:30:07.581Z,97129.34
2022-10-22T14:35:04.003Z,97132.03
2022-10-22T14:40:01.772Z,97131.47
2022-10-22T14:44:55.437Z,97123.41
2022-10-22T14:49:48.794Z,97136.94
2022-10-22T14:54:42.131Z,97138.59
2022-10-22T14:59:37.444Z,97142.63
2022-10-22T15:04:30.741Z,97143.31
2022-10-22T15:09:24.854Z,97143.91
2022-10-22T15:14:18.388Z,97146.00
2022-10-22T15:19:13.063Z,97132.41
2022-10-22T15:24:07.310Z,97127.22
2022-10-22T15:29:00.729Z,97118.66
2022-10-22T15:33:56.295Z,97133.41
2022-10-22T15:38:54.328Z,97125.06
2022-10-22T15:43:48.875Z,97136.59
2022-10-22T15:48:43.118Z,97122.03
2022-10-22T15:53:36.592Z,97137.59
2022-10-22T15:58:31.412Z,97142.50
2022-10-22T16:03:24.705Z,97149.03
2022-10-22T16:08:18.132Z,97129.97
2022-10-22T16:13:11.332Z,97132.63
2022-10-22T16:18:06.299Z,97124.72
2022-10-22T16:22:59.669Z,97119.97
2022-10-22T16:27:53.374Z,97113.59
2022-10-22T16:32:46.654Z,97106.22
2022-10-22T16:37:41.458Z,97109.41
2022-10-22T16:42:34.871Z,97110.09
2022-10-22T16:47:28.227Z,97119.28
2022-10-22T16:52:21.489Z,97133.84
2022-10-22T16:57:16.275Z,97137.00
2022-10-22T17:02:12.460Z,97141.47
2022-10-22T17:07:05.786Z,97143.94
2022-10-22T17:11:59.100Z,97140.31
2022-10-22T17:16:54.047Z,97133.19
2022-10-22T17:21:48.739Z,97135.50
2022-10-22T17:26:42.204Z,97134.97
2022-10-22T17:31:39.236Z,97148.81
2022-10-22T17:36:45.130Z,97153.47
2022-10-22T17:41:39.469Z,97157.59
2022-10-22T17:46:35.250Z,97151.09
2022-10-22T17:51:37.402Z,97151.69
2022-10-22T17:56:34.393Z,97148.75
2022-10-22T18:01:31.198Z,97156.22
2022-10-22T18:06:27.458Z,97148.78
2022-10-22T18:11:23.588Z,97161.13
2022-10-22T18:16:23.690Z,97133.34
2022-10-22T18:21:24.814Z,97137.66
2022-10-22T18:26:35.461Z,97143.75
2022-10-22T18:31:33.437Z,97141.34
2022-10-22T18:36:33.782Z,97127.09
2022-10-22T18:41:34.069Z,97133.66
2022-10-22T18:46:41.189Z,97126.84
2022-10-22T18:51:35.785Z,97136.09
2022-10-22T18:56:29.198Z,97146.31
2022-10-22T19:01:30.587Z,97152.69
2022-10-22T19:17:48.266Z,97164.41
2022-10-22T19:22:45.479Z,97182.34
2022-10-22T19:27:39.799Z,97176.75
2022-10-22T19:32:33.433Z,97173.81
2022-10-22T19:37:57.039Z,97162.94
2022-10-22T19:54:10.516Z,97168.84
2022-10-22T20:04:34.170Z,97180.41
2022-10-22T20:09:44.084Z,97188.44
2022-10-22T20:21:37.869Z,97165.94
2022-10-22T20:27:11.202Z,97172.75
2022-10-22T20:32:24.866Z,97171.22
2022-10-22T20:42:57.673Z,97175.19
2022-10-22T20:48:57.208Z,97175.47
2022-10-22T20:53:55.368Z,97185.66
2022-10-22T21:05:11.091Z,97176.44
2022-10-22T21:10:32.543Z,97183.13
2022-10-22T21:15:28.982Z,97187.69
2022-10-22T21:20:24.697Z,97182.53
2022-10-22T21:25:22.367Z,97179.91
2022-10-22T21:30:15.734Z,97192.47
2022-10-22T21:35:10.522Z,97188.88
2022-10-22T21:40:06.990Z,97196.16
2022-10-22T21:45:00.354Z,97190.06
2022-10-22T21:49:53.902Z,97182.03
2022-10-22T21:54:48.665Z,97181.22
2022-10-22T21:59:42.101Z,97180.97
2022-10-22T22:04:35.608Z,97171.19
2022-10-22T22:09:28.888Z,97172.63
2022-10-22T22:14:23.489Z,97173.34
2022-10-22T22:19:19.634Z,97178.59
2022-10-22T22:24:14.429Z,97166.41
2022-10-22T22:29:07.768Z,97154.72
2022-10-22T22:34:05.866Z,97153.28
2022-10-22T22:38:59.171Z,97150.41
2022-10-22T22:43:52.484Z,97154.22
2022-10-22T22:55:09.618Z,97146.75
2022-10-22T23:00:03.342Z,97131.91
2022-10-22T23:04:56.681Z,97116.84
2022-10-22T23:09:49.979Z,97123.09
2022-10-22T23:14:44.657Z,97111.63
2022-10-22T23:19:37.900Z,97105.22
2022-10-22T23:24:31.443Z,97122.06
2022-10-22T23:29:27.794Z,97108.94
2022-10-22T23:34:25.795Z,97132.69
2022-10-22T23:39:23.560Z,97129.31
2022-10-22T23:44:17.148Z,97127.44
2022-10-22T23:49:12.369Z,97139.31
2022-10-22T23:54:11.618Z,97140.28
2022-10-22T23:59:05.988Z,97140.25
